Terminal Aerodrome Forecast
Issued by NWS Bismarck, ND

Home | Current Version | Previous Version | Graphics & Text | Print | Product List | Glossary On
Versions: 1 2 3 4 5 6 7 8 9 10 11 12 13 14 15 16
000
FTUS43 KBIS 240500
TAFBIS
TAF
KBIS 240540Z 2406/2506 28006KT P6SM SCT250
     FM241000 27007KT P6SM SCT100 BKN150
     FM241500 29006KT P6SM -RASN SCT015 OVC025
     FM241800 33014KT 4SM -RA BR OVC010
     FM250300 33012KT 5SM -RASN BR OVC012=

USA.gov is the U.S. government's official web portal to all federal, state and local government web resources and services.